Cusick, WA (99119)

3:05 PM PST on November 20, 2014 (GMT -0800)
RAWS FLOWERY TRAIL WA US | Change Station
CLOSE
Current Station
Personal Weather Station
Location: Usk, WA
Elevation: 2680 ft
Nearby Weather Stations

Elev 2680 ft 48.30 °N, 117.41 °W | Updated 35 minutes ago

Mostly Cloudy
Mostly Cloudy
31 °F
Feels Like 31 °F
N
0
Wind Variable Wind from North
Gusts 0.0 mph

Today
High -- | Low -- °F
--% Chance of Precip.
Yesterday
High -- | Low -- °F
Precip. -- in
7:04 AM 4:04 PM
Waning Crescent, 3% visible
Pressure 30.10 in
Visibility 5.0 miles
Clouds Mostly Cloudy 800 ft
Overcast 2300 ft
Windchill 31 °F
Dew Point 29 °F
Humidity 93%
Rainfall 0.02 in
Snow Depth Not available.
UV 0 out of 12
Pollen .30 out of 12
Air Quality Not available.
Flu Activity Not available.
METAR KDEW 202153Z AUTO 00000KT 5SM BR BKN008 OVC023 M01/M02 A3003 RMK AO2 CIG 007V011 SLP192 T10061022

More Conditions Fewer Conditions

Pressure 30.10 in
Visibility 5.0 miles
Clouds Mostly Cloudy 800 ft
Overcast 2300 ft
Windchill 31 °F
Dew Point 29 °F
Humidity 93%
Rainfall 0.02 in
Snow Depth Not available.
UV 0 out of 12
Pollen .30 out of 12
Air Quality Not available.
Flu Activity Not available.
METAR KDEW 202153Z AUTO 00000KT 5SM BR BKN008 OVC023 M01/M02 A3003 RMK AO2 CIG 007V011 SLP192 T10061022

More Conditions Fewer Conditions

10-Day Weather Forecast

Almanac

Astronomy

Nov. 20, 2014 Rise Set
Actual Time
Civil Twilight
Nautical Twilight
Astronomical Twilight
Moon
Length of Visible Light
Length of Day
Tomorrow will be .
, % of the Moon is Illuminated

Today's Extremes

State Highs State Lows

Community

WunderPhotos

Upload Photos

1,772,545 photos uploaded!

WunderBlogs® & News

Nearby

Air Quality

  Air Quality AQ Index Pollutant
Not available.

Snow Depth

Station Depth Elevation

Earthquake Activity

City Distance Mag. Time & Date
Minimum magnitude displayed is 2.5.

Coastal Water Temperatures

Place Temperature

Nearby Weather Stations